createdAt,value
2019-01-27T00:01:01.282Z,99.29
2019-01-27T00:03:32.424Z,99.08
2019-01-27T00:06:03.232Z,99.14
2019-01-27T00:08:34.194Z,98.72
2019-01-27T00:11:05.060Z,98.59
2019-01-27T00:13:35.890Z,98.54
2019-01-27T00:16:08.263Z,98.32
2019-01-27T00:18:39.128Z,98.25
2019-01-27T00:21:09.892Z,98.22
2019-01-27T00:23:40.774Z,97.93
2019-01-27T00:26:11.581Z,97.93
2019-01-27T00:28:42.440Z,97.60
2019-01-27T00:31:13.308Z,97.39
2019-01-27T00:33:44.116Z,97.60
2019-01-27T00:36:14.924Z,97.73
2019-01-27T00:38:45.699Z,97.47
2019-01-27T00:41:16.510Z,97.20
2019-01-27T00:43:47.309Z,97.29
2019-01-27T00:46:18.143Z,97.20
2019-01-27T00:48:49.015Z,97.22
2019-01-27T00:51:19.892Z,97.01
2019-01-27T00:53:50.669Z,96.77
2019-01-27T00:56:22.554Z,96.74
2019-01-27T00:58:53.390Z,96.80
2019-01-27T01:01:24.265Z,96.81
2019-01-27T01:03:55.069Z,96.81
2019-01-27T01:06:25.929Z,96.72
2019-01-27T01:08:56.691Z,96.43
2019-01-27T01:11:27.515Z,96.34
2019-01-27T01:13:58.333Z,96.26
2019-01-27T01:16:29.147Z,96.29
2019-01-27T01:18:59.923Z,96.05
2019-01-27T01:21:30.691Z,95.98
2019-01-27T01:24:01.699Z,95.68
2019-01-27T01:26:32.552Z,95.82
2019-01-27T01:29:03.382Z,95.76
2019-01-27T01:31:34.205Z,95.77
2019-01-27T01:34:05.495Z,95.75
2019-01-27T01:36:36.274Z,95.42
2019-01-27T01:39:12.055Z,95.29
2019-01-27T01:41:42.843Z,95.31
2019-01-27T01:44:13.671Z,95.40
2019-01-27T01:46:44.571Z,95.37
2019-01-27T01:49:15.391Z,95.28
2019-01-27T01:51:46.180Z,95.29
2019-01-27T01:54:16.991Z,95.14
2019-01-27T01:56:47.752Z,94.90
2019-01-27T01:59:18.609Z,94.99
2019-01-27T02:01:49.376Z,95.10
2019-01-27T02:04:20.168Z,95.06
2019-01-27T02:06:50.961Z,94.96
2019-01-27T02:09:21.822Z,94.81
2019-01-27T02:11:52.615Z,94.53
2019-01-27T02:14:23.505Z,94.61
2019-01-27T02:16:54.259Z,94.68
2019-01-27T02:19:25.053Z,94.44
2019-01-27T02:21:56.012Z,94.41
2019-01-27T02:24:28.042Z,94.38
2019-01-27T02:26:58.854Z,94.23
2019-01-27T02:29:32.426Z,94.10
2019-01-27T02:32:04.014Z,94.08
2019-01-27T02:34:36.236Z,93.80
2019-01-27T02:37:10.144Z,93.75
2019-01-27T02:39:44.311Z,93.68
2019-01-27T02:42:20.308Z,93.50
2019-01-27T02:44:51.282Z,93.54
2019-01-27T02:47:26.328Z,93.40
2019-01-27T02:49:57.176Z,93.41
2019-01-27T02:52:28.298Z,93.23
2019-01-27T02:54:59.657Z,93.25
2019-01-27T02:57:35.126Z,93.18
2019-01-27T03:00:08.717Z,93.21
2019-01-27T03:02:41.298Z,93.10
2019-01-27T03:05:29.858Z,92.98
2019-01-27T03:08:01.310Z,92.93
2019-01-27T03:10:35.650Z,92.83
2019-01-27T03:13:08.435Z,92.80
2019-01-27T03:15:39.542Z,92.59
2019-01-27T03:18:11.058Z,92.45
2019-01-27T03:20:48.138Z,92.32
2019-01-27T03:23:19.125Z,92.30
2019-01-27T03:25:53.346Z,92.28
2019-01-27T03:28:24.413Z,92.28
2019-01-27T03:30:55.595Z,92.33
2019-01-27T03:33:26.373Z,92.08
2019-01-27T03:35:58.038Z,91.59
2019-01-27T03:38:29.112Z,91.58
2019-01-27T03:41:00.386Z,91.57
2019-01-27T03:43:31.538Z,91.79
2019-01-27T03:46:03.588Z,91.91
2019-01-27T03:48:34.434Z,91.98
2019-01-27T03:51:09.106Z,91.49
2019-01-27T03:53:40.218Z,91.42
2019-01-27T03:56:12.228Z,91.52
2019-01-27T03:58:43.970Z,91.61
2019-01-27T04:01:15.309Z,91.52
2019-01-27T04:03:46.619Z,91.54
2019-01-27T04:06:21.063Z,91.61
2019-01-27T04:08:52.032Z,91.55
2019-01-27T04:11:24.548Z,91.59
2019-01-27T04:13:55.610Z,91.58
2019-01-27T04:16:26.411Z,91.64
2019-01-27T04:19:00.093Z,91.74
2019-01-27T04:21:31.151Z,91.78
2019-01-27T04:24:02.505Z,91.53
2019-01-27T04:26:33.562Z,91.15
2019-01-27T04:29:08.352Z,91.24
2019-01-27T04:31:40.851Z,91.07
2019-01-27T04:34:11.777Z,91.01
2019-01-27T04:36:44.710Z,90.69
2019-01-27T04:39:16.051Z,90.79
2019-01-27T04:41:47.072Z,90.91
2019-01-27T04:44:17.974Z,91.12
2019-01-27T04:46:51.069Z,90.89
2019-01-27T04:49:22.043Z,90.85
2019-01-27T04:51:53.402Z,90.74
2019-01-27T04:54:24.278Z,91.03
2019-01-27T04:56:58.380Z,90.87
2019-01-27T04:59:29.140Z,90.87
2019-01-27T05:02:00.434Z,90.89
2019-01-27T05:04:36.834Z,90.94
2019-01-27T05:07:10.858Z,91.00
2019-01-27T05:09:42.354Z,90.98
2019-01-27T05:12:13.465Z,91.12
2019-01-27T05:14:47.443Z,91.22
2019-01-27T05:17:18.855Z,91.57
2019-01-27T05:19:49.741Z,91.57
2019-01-27T05:22:22.557Z,91.49
2019-01-27T05:24:53.541Z,91.33
2019-01-27T05:27:25.425Z,91.20
2019-01-27T05:29:57.048Z,91.27
2019-01-27T05:32:27.864Z,90.81
2019-01-27T05:34:59.110Z,90.73
2019-01-27T05:37:32.865Z,90.49
2019-01-27T05:40:04.504Z,90.10
2019-01-27T05:42:35.402Z,90.16
2019-01-27T05:45:11.254Z,90.30
2019-01-27T05:47:44.203Z,90.42
2019-01-27T05:50:19.949Z,89.98
2019-01-27T05:52:51.390Z,89.97
2019-01-27T05:55:23.115Z,89.92
2019-01-27T05:57:57.888Z,89.98
2019-01-27T06:00:33.648Z,89.94
2019-01-27T06:03:05.297Z,89.95
2019-01-27T06:05:37.150Z,89.33
2019-01-27T06:08:11.900Z,89.30
2019-01-27T06:10:43.271Z,89.39
2019-01-27T06:13:14.167Z,89.49
2019-01-27T06:15:48.221Z,89.25
2019-01-27T06:18:22.362Z,89.45
2019-01-27T06:20:53.554Z,89.59
2019-01-27T06:23:26.565Z,89.52
2019-01-27T06:25:57.585Z,89.59
2019-01-27T06:28:28.304Z,89.48
2019-01-27T06:30:59.179Z,89.58
2019-01-27T06:33:50.013Z,89.51
2019-01-27T06:36:20.752Z,89.20
2019-01-27T06:38:51.569Z,88.86
2019-01-27T06:41:22.425Z,88.95
2019-01-27T06:43:53.200Z,88.84
2019-01-27T06:46:25.435Z,88.61
2019-01-27T06:48:56.443Z,88.72
2019-01-27T06:51:27.262Z,88.80
2019-01-27T06:53:58.036Z,88.77
2019-01-27T06:56:29.037Z,88.52
2019-01-27T06:59:24.602Z,88.40
2019-01-27T07:02:05.104Z,88.10
2019-01-27T07:04:44.603Z,87.96
2019-01-27T07:07:22.344Z,87.88
2019-01-27T07:10:18.196Z,88.13
2019-01-27T07:13:02.368Z,88.34
2019-01-27T07:15:45.892Z,88.00
2019-01-27T07:18:50.956Z,88.05
2019-01-27T07:21:46.491Z,87.92
2019-01-27T07:24:36.170Z,87.62
2019-01-27T07:27:41.232Z,87.34
2019-01-27T07:30:47.538Z,87.25
2019-01-27T07:33:40.820Z,87.46
2019-01-27T07:36:45.783Z,86.94
2019-01-27T07:39:38.345Z,86.85
2019-01-27T07:42:27.968Z,86.81
2019-01-27T07:45:15.779Z,86.91
2019-01-27T07:47:54.936Z,86.69
2019-01-27T07:50:36.485Z,86.02
2019-01-27T07:53:41.256Z,85.63
2019-01-27T07:56:30.877Z,85.63
2019-01-27T07:59:13.980Z,85.99
2019-01-27T08:02:02.816Z,86.29
2019-01-27T08:04:49.563Z,86.08
2019-01-27T08:07:46.506Z,85.71
2019-01-27T08:10:45.793Z,85.54
2019-01-27T08:13:47.853Z,85.38
2019-01-27T08:16:36.646Z,85.42
2019-01-27T08:19:24.940Z,85.57
2019-01-27T08:22:29.128Z,85.48
2019-01-27T08:25:28.211Z,85.45
2019-01-27T08:28:10.866Z,85.32
2019-01-27T08:31:15.787Z,85.36
2019-01-27T08:34:02.254Z,85.26
2019-01-27T08:36:44.340Z,85.09
2019-01-27T08:39:28.256Z,84.71
2019-01-27T08:42:10.896Z,84.26
2019-01-27T08:45:19.247Z,83.38
2019-01-27T08:47:50.056Z,82.29
2019-01-27T08:50:24.604Z,81.05
2019-01-27T08:52:55.414Z,80.62
2019-01-27T08:55:27.606Z,79.73
2019-01-27T08:57:58.405Z,79.01
2019-01-27T09:00:44.581Z,78.48
2019-01-27T09:03:46.586Z,77.76
2019-01-27T09:06:42.177Z,77.87
2019-01-27T09:09:30.498Z,78.23
2019-01-27T09:12:23.604Z,78.26
2019-01-27T09:15:28.968Z,78.40
2019-01-27T09:18:17.516Z,79.03
2019-01-27T09:20:56.440Z,79.51
2019-01-27T09:23:49.273Z,78.74
2019-01-27T09:26:42.025Z,78.36
2019-01-27T09:29:31.757Z,77.91
2019-01-27T09:32:20.253Z,77.35
2019-01-27T09:35:01.203Z,76.97
2019-01-27T09:37:39.926Z,77.45
2019-01-27T09:40:35.054Z,77.87
2019-01-27T09:43:25.371Z,78.01
2019-01-27T09:46:05.520Z,78.53
2019-01-27T09:49:00.683Z,78.38
2019-01-27T09:51:46.259Z,77.16
2019-01-27T09:54:24.181Z,75.59
2019-01-27T09:57:29.397Z,74.90
2019-01-27T10:00:21.701Z,74.14
2019-01-27T10:03:23.820Z,73.98
2019-01-27T10:06:16.586Z,73.44
2019-01-27T10:09:06.077Z,73.67
2019-01-27T10:11:52.152Z,73.63
2019-01-27T10:14:54.477Z,74.16
2019-01-27T10:17:40.358Z,73.30
2019-01-27T10:20:33.803Z,73.34
2019-01-27T10:23:19.960Z,72.54
2019-01-27T10:26:21.036Z,72.67
2019-01-27T10:29:10.565Z,72.73
2019-01-27T10:32:03.977Z,71.85
2019-01-27T10:34:44.839Z,72.10
2019-01-27T10:37:31.162Z,70.93
2019-01-27T10:40:20.885Z,70.67
2019-01-27T10:43:00.532Z,70.48
2019-01-27T10:45:40.636Z,70.92
2019-01-27T10:48:22.190Z,71.76
2019-01-27T10:51:08.796Z,70.95
2019-01-27T10:53:46.188Z,71.32
2019-01-27T10:56:38.792Z,71.21
2019-01-27T10:59:34.518Z,71.07
2019-01-27T11:02:27.594Z,70.50
2019-01-27T11:05:20.221Z,70.03
2019-01-27T11:08:19.007Z,70.50
2019-01-27T11:11:08.701Z,71.20
2019-01-27T11:13:53.725Z,69.95
2019-01-27T11:16:42.302Z,70.26
2019-01-27T11:19:32.003Z,69.75
2019-01-27T11:22:12.792Z,70.14
2019-01-27T11:25:01.228Z,69.26
2019-01-27T11:27:44.824Z,70.11
2019-01-27T11:30:39.214Z,72.05
2019-01-27T11:33:28.983Z,71.74
2019-01-27T11:36:34.048Z,72.89
2019-01-27T11:39:44.268Z,72.56
2019-01-27T11:42:52.251Z,71.58
2019-01-27T11:45:28.305Z,70.49
2019-01-27T11:48:27.423Z,70.34
2019-01-27T11:51:03.618Z,68.31
2019-01-27T11:53:34.441Z,68.62
2019-01-27T11:56:05.673Z,68.32
2019-01-27T11:58:37.852Z,68.80
2019-01-27T12:01:08.767Z,70.74
2019-01-27T12:03:39.662Z,71.05
2019-01-27T12:06:10.506Z,70.03
2019-01-27T12:08:41.356Z,69.39
2019-01-27T12:11:12.150Z,69.45
2019-01-27T12:13:42.954Z,70.99
2019-01-27T12:16:13.918Z,71.72
2019-01-27T12:18:44.822Z,70.40
2019-01-27T12:21:15.746Z,70.08
2019-01-27T12:23:46.636Z,69.62
2019-01-27T12:26:17.421Z,69.58
2019-01-27T12:28:48.237Z,70.03
2019-01-27T12:31:19.036Z,70.48
2019-01-27T12:33:49.834Z,70.98
2019-01-27T12:36:20.699Z,71.92
2019-01-27T12:38:51.558Z,71.55
2019-01-27T12:41:22.338Z,71.93
2019-01-27T12:43:53.090Z,72.85
2019-01-27T12:46:24.022Z,72.02
2019-01-27T12:48:54.819Z,72.07
2019-01-27T12:51:25.598Z,71.73
2019-01-27T12:53:56.478Z,71.37
2019-01-27T12:56:27.251Z,71.35
2019-01-27T12:58:58.083Z,71.17
2019-01-27T13:01:28.946Z,71.40
2019-01-27T13:03:59.766Z,71.27
2019-01-27T13:06:30.547Z,71.64
2019-01-27T13:09:01.418Z,71.73
2019-01-27T13:11:32.402Z,71.78
2019-01-27T13:14:03.189Z,71.49
2019-01-27T13:16:36.214Z,71.38
2019-01-27T13:19:07.330Z,71.03
2019-01-27T13:21:38.519Z,71.48
2019-01-27T13:24:09.292Z,71.96
2019-01-27T13:26:40.225Z,71.51
2019-01-27T13:29:11.173Z,70.67
2019-01-27T13:31:41.997Z,70.37
2019-01-27T13:34:12.817Z,69.63
2019-01-27T13:36:43.644Z,69.86
2019-01-27T13:39:14.466Z,70.14
2019-01-27T13:41:45.302Z,70.48
2019-01-27T13:44:16.135Z,71.08
2019-01-27T13:46:46.952Z,71.06
2019-01-27T13:49:17.721Z,70.86
2019-01-27T13:51:48.625Z,69.90
2019-01-27T13:54:19.452Z,68.65
2019-01-27T13:56:50.351Z,68.24
2019-01-27T13:59:26.721Z,66.87
2019-01-27T14:01:57.491Z,65.51
2019-01-27T14:04:28.309Z,65.14
2019-01-27T14:06:59.115Z,65.70
2019-01-27T14:09:29.943Z,68.77
2019-01-27T14:12:00.712Z,69.96
2019-01-27T14:14:31.549Z,70.43
2019-01-27T14:17:02.387Z,70.79
2019-01-27T14:19:33.211Z,71.22
2019-01-27T14:22:06.114Z,71.06
2019-01-27T14:24:36.997Z,71.07
2019-01-27T14:27:07.893Z,70.67
2019-01-27T14:29:38.790Z,70.82
2019-01-27T14:32:09.731Z,71.26
2019-01-27T14:34:40.615Z,71.33
2019-01-27T14:37:11.443Z,71.69
2019-01-27T14:39:42.325Z,71.51
2019-01-27T14:42:13.223Z,71.35
2019-01-27T14:44:44.053Z,71.61
2019-01-27T14:47:14.932Z,72.05
2019-01-27T14:49:45.714Z,72.10
2019-01-27T14:52:16.665Z,72.56
2019-01-27T14:54:47.509Z,73.12
2019-01-27T14:57:18.327Z,73.88
2019-01-27T14:59:49.154Z,74.92
2019-01-27T15:02:20.063Z,75.27
2019-01-27T15:04:53.993Z,75.47
2019-01-27T15:07:25.014Z,75.59
2019-01-27T15:09:55.807Z,75.52
2019-01-27T15:12:26.637Z,75.73
2019-01-27T15:15:45.985Z,76.17
2019-01-27T15:18:17.828Z,76.91
2019-01-27T15:20:54.616Z,77.50
2019-01-27T15:23:28.006Z,77.87
2019-01-27T15:26:02.459Z,78.32
2019-01-27T15:28:34.525Z,79.13
2019-01-27T15:31:06.878Z,79.09
2019-01-27T15:33:38.722Z,79.47
2019-01-27T15:36:10.688Z,80.07
2019-01-27T15:38:42.668Z,80.25
2019-01-27T15:41:14.592Z,80.62
2019-01-27T15:43:48.733Z,81.02
2019-01-27T15:46:20.616Z,81.63
2019-01-27T15:48:52.456Z,82.14
2019-01-27T15:51:25.636Z,82.00
2019-01-27T15:53:57.549Z,82.18
2019-01-27T15:56:29.446Z,82.25
2019-01-27T15:59:02.362Z,82.09
2019-01-27T16:01:34.228Z,81.86
2019-01-27T16:04:06.150Z,81.61
2019-01-27T16:06:38.124Z,81.52
2019-01-27T16:09:10.604Z,81.24
2019-01-27T16:11:43.473Z,81.11
2019-01-27T16:14:15.455Z,81.00
2019-01-27T16:16:51.202Z,81.18
2019-01-27T16:19:23.106Z,81.12
2019-01-27T16:21:55.127Z,81.00
2019-01-27T16:24:30.261Z,80.92
2019-01-27T16:27:02.304Z,81.05
2019-01-27T16:29:53.290Z,80.96
2019-01-27T16:32:32.107Z,81.04
2019-01-27T16:35:10.006Z,80.56
2019-01-27T16:37:43.488Z,80.30
2019-01-27T16:40:22.740Z,80.74
2019-01-27T16:42:54.806Z,82.42
2019-01-27T16:45:27.109Z,80.50
2019-01-27T16:47:59.694Z,80.52
2019-01-27T16:50:31.733Z,81.85
2019-01-27T16:53:04.107Z,80.16
2019-01-27T16:55:36.423Z,79.05
2019-01-27T16:58:08.649Z,78.08
2019-01-27T17:00:40.949Z,78.30
2019-01-27T17:03:12.866Z,79.22
2019-01-27T17:05:44.770Z,79.34
2019-01-27T17:08:16.844Z,79.83
2019-01-27T17:10:48.856Z,79.62
2019-01-27T17:13:20.987Z,79.77
2019-01-27T17:15:52.905Z,79.55
2019-01-27T17:18:24.812Z,80.21
2019-01-27T17:20:57.062Z,80.36
2019-01-27T17:23:29.252Z,80.11
2019-01-27T17:26:03.140Z,80.11
2019-01-27T17:28:35.719Z,80.49
2019-01-27T17:31:08.049Z,80.54
2019-01-27T17:33:40.687Z,80.45
2019-01-27T17:36:13.336Z,82.48
2019-01-27T17:38:45.620Z,80.35
2019-01-27T17:41:17.901Z,79.70
2019-01-27T17:43:50.094Z,79.55
2019-01-27T17:46:25.299Z,79.59
2019-01-27T17:48:57.872Z,79.51
2019-01-27T17:51:30.271Z,79.41
2019-01-27T17:54:04.877Z,79.53
2019-01-27T17:56:38.570Z,79.60
2019-01-27T17:59:26.561Z,79.75
2019-01-27T18:02:15.783Z,79.58
2019-01-27T18:05:06.019Z,79.44
2019-01-27T18:07:59.700Z,79.39
2019-01-27T18:10:53.664Z,79.92
2019-01-27T18:13:56.768Z,80.40
2019-01-27T18:16:28.905Z,80.51
2019-01-27T18:19:00.935Z,80.22
2019-01-27T18:21:32.968Z,80.18
2019-01-27T18:24:05.076Z,80.16
2019-01-27T18:26:37.774Z,80.17
2019-01-27T18:29:10.231Z,80.48
2019-01-27T18:31:42.468Z,80.28
2019-01-27T18:34:14.559Z,80.20
2019-01-27T18:36:49.573Z,80.53
2019-01-27T18:39:23.410Z,80.78
2019-01-27T18:41:55.388Z,80.65
2019-01-27T18:44:27.477Z,80.50
2019-01-27T18:46:59.410Z,80.13
2019-01-27T18:49:31.929Z,80.14
2019-01-27T18:52:04.520Z,80.28
2019-01-27T18:54:51.917Z,80.80
2019-01-27T18:57:48.576Z,81.69
2019-01-27T19:00:42.575Z,82.40
2019-01-27T19:03:36.661Z,83.47
2019-01-27T19:06:37.015Z,83.46
2019-01-27T19:09:33.587Z,82.96
2019-01-27T19:12:35.329Z,83.04
2019-01-27T19:15:30.762Z,83.43
2019-01-27T19:18:34.002Z,83.88
2019-01-27T19:21:15.627Z,83.83
2019-01-27T19:24:09.667Z,84.19
2019-01-27T19:26:51.967Z,84.07
2019-01-27T19:29:46.220Z,83.93
2019-01-27T19:32:34.367Z,83.46
2019-01-27T19:35:31.856Z,83.11
2019-01-27T19:38:10.805Z,82.81
2019-01-27T19:40:59.590Z,82.49
2019-01-27T19:43:50.484Z,81.82
2019-01-27T19:46:28.537Z,81.13
2019-01-27T19:49:10.862Z,80.36
2019-01-27T19:52:07.779Z,80.29
2019-01-27T19:55:16.891Z,80.18
2019-01-27T19:58:16.934Z,80.10
2019-01-27T20:01:13.950Z,79.98
2019-01-27T20:03:53.315Z,79.96
2019-01-27T20:06:31.525Z,79.99
2019-01-27T20:09:15.603Z,80.45
2019-01-27T20:12:18.267Z,80.64
2019-01-27T20:15:15.164Z,80.51
2019-01-27T20:18:17.926Z,80.17
2019-01-27T20:21:11.846Z,79.91
2019-01-27T20:24:01.203Z,79.56
2019-01-27T20:26:52.090Z,79.30
2019-01-27T20:29:45.390Z,79.17
2019-01-27T20:32:45.273Z,79.01
2019-01-27T20:35:38.910Z,79.02
2019-01-27T20:38:19.168Z,78.93
2019-01-27T20:41:25.082Z,79.06
2019-01-27T20:44:16.871Z,78.89
2019-01-27T20:47:00.378Z,79.02
2019-01-27T20:50:03.338Z,78.92
2019-01-27T20:52:39.392Z,78.73
2019-01-27T20:55:23.653Z,78.79
2019-01-27T20:58:04.616Z,78.36
2019-01-27T21:00:47.381Z,77.80
2019-01-27T21:03:41.401Z,77.59
2019-01-27T21:06:32.159Z,77.19
2019-01-27T21:09:21.213Z,77.61
2019-01-27T21:12:24.299Z,77.68
2019-01-27T21:15:21.273Z,77.55
2019-01-27T21:18:07.827Z,77.48
2019-01-27T21:20:39.780Z,77.31
2019-01-27T21:23:12.799Z,77.21
2019-01-27T21:25:44.723Z,77.01
2019-01-27T21:28:16.645Z,76.56
2019-01-27T21:30:48.471Z,76.56
2019-01-27T21:33:20.295Z,76.40
2019-01-27T21:35:52.118Z,76.47
2019-01-27T21:38:23.925Z,76.41
2019-01-27T21:40:55.839Z,76.36
2019-01-27T21:43:27.661Z,76.05
2019-01-27T21:45:59.500Z,76.17
2019-01-27T21:48:31.373Z,76.30
2019-01-27T21:51:06.077Z,76.02
2019-01-27T21:53:37.907Z,76.33
2019-01-27T21:56:09.812Z,76.95
2019-01-27T21:58:41.700Z,77.36
2019-01-27T22:01:13.557Z,77.49
2019-01-27T22:03:45.442Z,77.53
2019-01-27T22:06:17.279Z,77.75
2019-01-27T22:08:49.161Z,77.79
2019-01-27T22:11:21.017Z,77.67
2019-01-27T22:13:52.885Z,77.79
2019-01-27T22:16:24.755Z,77.93
2019-01-27T22:18:56.561Z,78.55
2019-01-27T22:21:28.398Z,78.65
2019-01-27T22:24:00.172Z,78.83
2019-01-27T22:26:32.005Z,78.85
2019-01-27T22:29:03.879Z,78.68
2019-01-27T22:31:35.729Z,78.58
2019-01-27T22:34:07.545Z,78.45
2019-01-27T22:36:39.365Z,78.29
2019-01-27T22:39:11.735Z,78.42
2019-01-27T22:41:43.619Z,78.05
2019-01-27T22:44:15.489Z,77.92
2019-01-27T22:46:47.458Z,77.46
2019-01-27T22:49:19.342Z,77.75
2019-01-27T22:51:51.221Z,77.51
2019-01-27T22:54:23.126Z,77.66
2019-01-27T22:56:55.027Z,77.62
2019-01-27T22:59:26.910Z,77.66
2019-01-27T23:01:58.775Z,77.81
2019-01-27T23:04:30.683Z,77.94
2019-01-27T23:07:02.677Z,78.20
2019-01-27T23:09:34.750Z,78.20
2019-01-27T23:12:06.933Z,78.14
2019-01-27T23:14:38.901Z,77.84
2019-01-27T23:17:10.783Z,77.79
2019-01-27T23:19:42.627Z,77.57
2019-01-27T23:22:14.463Z,77.59
2019-01-27T23:24:46.283Z,77.74
2019-01-27T23:27:18.178Z,78.14
2019-01-27T23:29:50.073Z,78.19
2019-01-27T23:32:21.906Z,77.86
2019-01-27T23:34:53.783Z,78.11
2019-01-27T23:37:25.557Z,77.92
2019-01-27T23:39:57.399Z,77.52
2019-01-27T23:42:29.287Z,77.79
2019-01-27T23:45:01.216Z,78.03
2019-01-27T23:47:33.205Z,78.02
2019-01-27T23:50:05.812Z,78.87
2019-01-27T23:52:37.941Z,79.23
2019-01-27T23:55:09.960Z,79.12
2019-01-27T23:57:41.770Z,79.24
